Adaton, Mississippi
Current Conditions -  °F | °C
As of 9:35 PM on Friday 28 Nov 2014 (Local Time) from KSTF Reporting Station
Clear Clear  
Wind Chill: 38°   Ceiling: Unl
Heat Index: 41°   Visibility: NA
Dew Point: 30°   Wind: 5mph
Humidity: 65%   Direction: 180°S
Pressure: 30.22"   Gusts: NA
Location:  33.4256°N, 88.8438°W
Report Text: KSTF 290335Z AUTO 18004KT CLR 05/M01 A3022 RMK AO2 PWINO
Loading
Personal Weather Stations






























Interactive Weather Map New forecast layout! Learn more

10-Day Weather Forecast

Advertisements
Track Severe Weather on mobile